createdAt,value
2022-08-31T00:03:20.946Z,2.00
2022-08-31T00:08:24.260Z,1.90
2022-08-31T00:13:28.264Z,2.70
2022-08-31T00:18:32.643Z,2.17
2022-08-31T00:23:35.105Z,1.80
2022-08-31T00:28:37.556Z,1.70
2022-08-31T00:33:40.742Z,1.90
2022-08-31T00:38:43.296Z,1.90
2022-08-31T00:43:49.068Z,2.43
2022-08-31T00:49:01.977Z,2.60
2022-08-31T00:54:05.987Z,2.30
2022-08-31T00:59:08.742Z,2.30
2022-08-31T01:04:11.912Z,2.33
2022-08-31T01:09:14.857Z,2.17
2022-08-31T01:14:17.438Z,2.40
2022-08-31T01:19:32.878Z,2.87
2022-08-31T01:24:36.308Z,2.50
2022-08-31T01:29:38.815Z,2.93
2022-08-31T01:34:41.473Z,2.40
2022-08-31T01:39:43.918Z,2.60
2022-08-31T01:44:46.329Z,2.63
2022-08-31T01:49:48.787Z,2.53
2022-08-31T01:54:51.269Z,2.50
2022-08-31T01:59:53.820Z,2.70
2022-08-31T02:05:22.366Z,2.30
2022-08-31T02:10:25.188Z,2.80
2022-08-31T02:15:27.784Z,2.60
2022-08-31T02:20:30.694Z,2.73
2022-08-31T02:25:33.155Z,2.87
2022-08-31T02:30:37.554Z,2.70
2022-08-31T02:35:40.719Z,2.33
2022-08-31T02:40:43.424Z,2.70
2022-08-31T02:45:51.031Z,2.67
2022-08-31T02:51:05.815Z,2.43
2022-08-31T02:56:08.706Z,3.10
2022-08-31T03:01:11.661Z,2.93
2022-08-31T03:06:17.766Z,3.40
2022-08-31T03:11:20.323Z,3.40
2022-08-31T03:16:23.011Z,3.27
2022-08-31T03:21:25.746Z,3.03
2022-08-31T03:26:28.412Z,2.70
2022-08-31T03:31:32.197Z,2.90
2022-08-31T03:36:34.863Z,2.97
2022-08-31T03:41:37.964Z,3.07
2022-08-31T03:46:45.467Z,2.90
2022-08-31T03:51:48.745Z,2.93
2022-08-31T03:56:54.901Z,2.70
2022-08-31T04:01:57.664Z,3.00
2022-08-31T04:07:19.838Z,3.13
2022-08-31T04:12:41.386Z,3.00
2022-08-31T04:17:49.936Z,3.97
2022-08-31T04:23:18.575Z,3.13
2022-08-31T04:28:25.211Z,3.27
2022-08-31T04:33:28.174Z,3.40
2022-08-31T04:38:31.302Z,3.33
2022-08-31T04:43:34.163Z,3.07
2022-08-31T04:48:37.176Z,3.20
2022-08-31T04:53:40.693Z,3.73
2022-08-31T04:58:47.387Z,3.00
2022-08-31T05:03:52.937Z,3.47
2022-08-31T05:08:57.449Z,3.70
2022-08-31T05:14:02.842Z,3.93
2022-08-31T05:19:06.510Z,3.53
2022-08-31T05:24:15.760Z,3.37
2022-08-31T05:29:23.407Z,3.73
2022-08-31T05:34:43.863Z,3.23
2022-08-31T05:39:46.374Z,2.90
2022-08-31T05:44:49.397Z,2.40
2022-08-31T05:49:52.750Z,2.70
2022-08-31T05:54:57.106Z,2.50
2022-08-31T05:59:59.641Z,2.50
2022-08-31T06:05:03.237Z,2.23
2022-08-31T06:10:06.595Z,2.27
2022-08-31T06:15:10.838Z,2.10
2022-08-31T06:20:17.820Z,2.30
2022-08-31T06:25:23.808Z,2.30
2022-08-31T06:30:27.907Z,2.10
2022-08-31T06:35:32.022Z,1.83
2022-08-31T06:40:53.800Z,1.77
2022-08-31T06:46:08.797Z,1.67
2022-08-31T06:51:38.344Z,2.23
2022-08-31T06:56:41.174Z,1.57
2022-08-31T07:02:05.031Z,1.40
2022-08-31T07:07:11.526Z,1.80
2022-08-31T07:12:16.020Z,1.40
2022-08-31T07:17:18.621Z,1.27
2022-08-31T07:22:21.474Z,1.10
2022-08-31T07:27:30.696Z,0.90
2022-08-31T07:32:34.921Z,1.20
2022-08-31T07:37:56.732Z,1.03
2022-08-31T07:43:04.638Z,1.13
2022-08-31T07:48:09.535Z,1.10
2022-08-31T07:53:47.786Z,1.00
2022-08-31T07:59:03.839Z,0.95
2022-08-31T08:04:08.154Z,0.70
2022-08-31T08:09:24.333Z,1.00
2022-08-31T08:14:39.881Z,1.15
2022-08-31T08:20:13.557Z,0.80
2022-08-31T08:25:17.968Z,0.73
2022-08-31T08:30:49.357Z,0.73
2022-08-31T08:36:02.218Z,0.80
2022-08-31T08:41:11.426Z,0.90
2022-08-31T08:46:33.475Z,0.70
2022-08-31T08:51:39.032Z,0.98
2022-08-31T08:56:47.834Z,0.75
2022-08-31T09:01:58.038Z,0.77
2022-08-31T09:07:21.300Z,1.20
2022-08-31T09:12:41.034Z,0.88
2022-08-31T09:18:01.029Z,0.93
2022-08-31T09:23:08.053Z,0.65
2022-08-31T09:28:15.143Z,0.77
2022-08-31T09:33:22.609Z,0.75
2022-08-31T09:38:33.138Z,1.10
2022-08-31T09:43:38.231Z,0.90
2022-08-31T09:48:51.894Z,0.63
2022-08-31T09:54:18.056Z,0.52
2022-08-31T09:59:47.210Z,0.47
2022-08-31T10:05:03.842Z,0.88
2022-08-31T10:10:28.161Z,0.60
2022-08-31T10:15:42.146Z,0.82
2022-08-31T10:20:51.780Z,0.52
2022-08-31T10:26:01.060Z,0.88
2022-08-31T10:31:13.712Z,0.60
2022-08-31T10:36:16.726Z,0.80
2022-08-31T10:41:23.595Z,0.60
2022-08-31T10:46:26.209Z,0.70
2022-08-31T10:51:40.618Z,0.80
2022-08-31T10:56:59.266Z,0.52
2022-08-31T11:02:21.531Z,0.60
2022-08-31T11:07:26.152Z,0.93
2022-08-31T11:12:42.364Z,0.80
2022-08-31T11:18:03.655Z,0.80
2022-08-31T11:23:27.964Z,1.00
2022-08-31T11:28:37.236Z,0.90
2022-08-31T11:34:14.183Z,0.68
2022-08-31T11:39:13.008Z,0.80
2022-08-31T11:44:30.830Z,0.60
2022-08-31T11:49:54.290Z,0.60
2022-08-31T11:55:06.757Z,1.80
2022-08-31T12:00:20.194Z,0.70
2022-08-31T12:05:56.247Z,1.23
2022-08-31T12:11:30.608Z,1.13
2022-08-31T12:16:45.400Z,1.10
2022-08-31T12:22:18.464Z,1.10
2022-08-31T12:27:59.200Z,1.38
2022-08-31T12:33:15.430Z,0.63
2022-08-31T12:38:20.948Z,0.90
2022-08-31T12:43:28.718Z,0.63
2022-08-31T12:48:46.896Z,1.23
2022-08-31T12:53:52.293Z,0.75
2022-08-31T12:59:51.325Z,0.50
2022-08-31T13:04:55.026Z,1.00
2022-08-31T13:10:13.808Z,0.40
2022-08-31T13:15:39.146Z,0.68
2022-08-31T13:20:44.267Z,0.50
2022-08-31T13:25:58.439Z,0.57
2022-08-31T13:31:09.200Z,1.08
2022-08-31T13:36:33.951Z,0.70
2022-08-31T13:41:42.849Z,1.08
2022-08-31T13:47:01.636Z,0.75
2022-08-31T13:52:15.473Z,0.70
2022-08-31T13:57:25.915Z,0.80
2022-08-31T14:02:36.732Z,0.70
2022-08-31T14:07:40.957Z,0.77
2022-08-31T14:12:57.856Z,0.75
2022-08-31T14:18:25.999Z,0.90
2022-08-31T14:23:32.065Z,1.10
2022-08-31T14:28:42.864Z,0.70
2022-08-31T14:33:48.074Z,0.77
2022-08-31T14:38:54.194Z,0.70
2022-08-31T14:44:06.930Z,0.90
2022-08-31T14:49:11.070Z,0.73
2022-08-31T14:54:16.057Z,1.17
2022-08-31T14:59:21.569Z,1.20
2022-08-31T15:04:25.187Z,1.50
2022-08-31T15:09:27.635Z,0.68
2022-08-31T15:14:30.921Z,1.08
2022-08-31T15:19:34.550Z,0.70
2022-08-31T15:24:38.859Z,0.70
2022-08-31T15:29:46.787Z,1.00
2022-08-31T15:34:58.711Z,0.80
2022-08-31T15:40:04.183Z,0.90
2022-08-31T15:45:07.887Z,1.00
2022-08-31T15:50:10.716Z,1.85
2022-08-31T15:55:16.286Z,1.50
2022-08-31T16:00:19.909Z,0.85
2022-08-31T16:05:23.443Z,1.15
2022-08-31T16:10:28.271Z,0.95
2022-08-31T16:15:33.058Z,1.02
2022-08-31T16:20:36.229Z,1.20
2022-08-31T16:25:47.308Z,1.35
2022-08-31T16:30:51.928Z,1.73
2022-08-31T16:35:54.552Z,1.35
2022-08-31T16:41:04.961Z,0.95
2022-08-31T16:46:30.392Z,1.20
2022-08-31T16:51:33.156Z,2.30
2022-08-31T16:56:40.609Z,3.40
2022-08-31T17:01:45.932Z,2.33
2022-08-31T17:06:49.236Z,0.93
2022-08-31T17:11:57.907Z,0.85
2022-08-31T17:17:05.805Z,1.05
2022-08-31T17:22:12.615Z,1.50
2022-08-31T17:27:21.229Z,1.33
2022-08-31T17:32:25.841Z,1.80
2022-08-31T17:37:32.781Z,3.90
2022-08-31T17:42:36.198Z,4.50
2022-08-31T17:47:38.695Z,4.38
2022-08-31T17:52:41.518Z,4.20
2022-08-31T17:57:44.468Z,2.88
2022-08-31T18:02:48.256Z,4.65
2022-08-31T18:07:50.921Z,2.08
2022-08-31T18:12:53.392Z,3.70
2022-08-31T18:17:56.526Z,1.90
2022-08-31T18:22:59.437Z,2.33
2022-08-31T18:28:04.639Z,1.33
2022-08-31T18:33:14.956Z,1.40
2022-08-31T18:38:17.891Z,1.27
2022-08-31T18:43:38.800Z,1.10
2022-08-31T18:48:48.750Z,1.77
2022-08-31T18:53:51.981Z,1.40
2022-08-31T18:58:54.414Z,1.50
2022-08-31T19:03:58.080Z,1.43
2022-08-31T19:09:01.317Z,1.70
2022-08-31T19:14:04.443Z,1.33
2022-08-31T19:19:07.319Z,2.13
2022-08-31T19:24:11.732Z,1.63
2022-08-31T19:29:23.029Z,2.20
2022-08-31T19:34:29.494Z,2.10
2022-08-31T19:39:37.012Z,2.80
2022-08-31T19:45:22.725Z,3.40
2022-08-31T19:50:13.544Z,4.47
2022-08-31T19:55:16.636Z,3.70
2022-08-31T20:00:20.020Z,3.00
2022-08-31T20:05:22.446Z,3.07
2022-08-31T20:10:24.871Z,2.83
2022-08-31T20:15:32.351Z,2.77
2022-08-31T20:20:48.411Z,2.67
2022-08-31T20:25:51.474Z,4.07
2022-08-31T20:30:59.121Z,4.17
2022-08-31T20:36:23.846Z,5.00
2022-08-31T20:41:32.055Z,4.20
2022-08-31T20:46:52.983Z,3.63
2022-08-31T20:51:56.745Z,3.10
2022-08-31T20:57:02.378Z,3.13
2022-08-31T21:02:07.291Z,2.87
2022-08-31T21:07:14.763Z,2.70
2022-08-31T21:12:18.648Z,3.63
2022-08-31T21:17:22.091Z,3.70
2022-08-31T21:22:25.845Z,3.37
2022-08-31T21:27:28.897Z,3.50
2022-08-31T21:32:31.423Z,3.67
2022-08-31T21:37:33.866Z,3.37
2022-08-31T21:42:36.311Z,3.57
2022-08-31T21:47:38.733Z,3.40
2022-08-31T21:52:41.242Z,3.20
2022-08-31T21:57:44.300Z,3.47
2022-08-31T22:02:47.000Z,3.13
2022-08-31T22:07:49.493Z,3.20
2022-08-31T22:12:51.924Z,3.30
2022-08-31T22:18:17.917Z,3.40
2022-08-31T22:23:16.725Z,3.07
2022-08-31T22:28:21.358Z,3.23
2022-08-31T22:33:23.862Z,3.33
2022-08-31T22:38:26.413Z,4.00
2022-08-31T22:43:28.842Z,3.10
2022-08-31T22:48:31.378Z,3.00
2022-08-31T22:53:34.032Z,2.90
2022-08-31T22:58:36.960Z,3.10
2022-08-31T23:03:39.399Z,2.97
2022-08-31T23:08:44.626Z,3.20
2022-08-31T23:13:57.654Z,2.33
2022-08-31T23:19:06.511Z,2.73
2022-08-31T23:24:10.184Z,2.37
2022-08-31T23:29:13.753Z,2.50
2022-08-31T23:34:16.963Z,2.80
2022-08-31T23:39:22.896Z,2.60
2022-08-31T23:44:25.342Z,3.37
2022-08-31T23:49:27.824Z,2.80
2022-08-31T23:54:30.414Z,2.87
2022-08-31T23:59:34.493Z,2.80
